Time;durP1;ratioP1;P1;durP2;ratioP2;P2;SDS_P1;SDS_P2;PMS_P1;PMS_P2;Temp;Humidity;BMP_temperature;BMP_pressure;BME280_temperature;BME280_humidity;BME280_pressure;Samples;Min_cycle;Max_cycle;Signal;HPM_P1;HPM_P2
2022/06/29 00:00:55;;;;;;;1.30;1.02;;;26.20;42.90;;;;;;5072434;28;20020;-76
2022/06/29 00:03:21;;;;;;;0.00;0.00;;;26.50;42.40;;;;;;5053811;28;20032;-76
2022/06/29 00:05:47;;;;;;;0.00;0.00;;;26.60;42.50;;;;;;5067062;28;20032;-76
2022/06/29 00:08:14;;;;;;;0.10;0.10;;;26.80;41.60;;;;;;5071224;28;20037;-75
2022/06/29 00:10:41;;;;;;;0.00;0.00;;;26.90;41.00;;;;;;5073696;28;20035;-76
2022/06/29 00:13:07;;;;;;;0.00;0.00;;;26.60;42.10;;;;;;5055359;28;20029;-76
2022/06/29 00:15:34;;;;;;;0.00;0.00;;;26.60;42.30;;;;;;5062426;28;20075;-76
2022/06/29 00:18:00;;;;;;;0.00;0.00;;;26.50;43.50;;;;;;5056969;28;20465;-76
2022/06/29 00:20:26;;;;;;;0.00;0.00;;;26.70;43.20;;;;;;5065336;28;20103;-76
2022/06/29 00:22:52;;;;;;;0.00;0.00;;;27.30;43.60;;;;;;5063488;28;20028;-74
2022/06/29 00:25:18;;;;;;;0.00;0.00;;;27.90;44.60;;;;;;5057120;28;20033;-75
2022/06/29 00:27:47;;;;;;;0.00;0.00;;;28.40;42.00;;;;;;5060292;28;20024;-76
2022/06/29 00:30:13;;;;;;;0.00;0.00;;;28.90;42.40;;;;;;5056681;28;20028;-75
2022/06/29 00:32:40;;;;;;;0.00;0.00;;;29.50;41.10;;;;;;5051864;28;20036;-75
2022/06/29 00:35:07;;;;;;;0.00;0.00;;;29.90;40.50;;;;;;5057740;28;20043;-75
2022/06/29 00:37:33;;;;;;;0.20;0.20;;;30.00;41.40;;;;;;5070063;28;20086;-75
2022/06/29 00:40:00;;;;;;;0.00;0.00;;;30.60;41.10;;;;;;5071616;28;20048;-74
2022/06/29 00:42:26;;;;;;;0.00;0.00;;;31.20;40.50;;;;;;5067890;28;20074;-74
2022/06/29 00:44:52;;;;;;;0.00;0.00;;;31.40;40.50;;;;;;5063853;28;20032;-74
2022/06/29 00:47:18;;;;;;;0.00;0.00;;;31.30;40.30;;;;;;5061969;28;20028;-74
2022/06/29 00:49:44;;;;;;;0.40;0.40;;;31.40;39.50;;;;;;5069414;28;20049;-74
2022/06/29 00:52:15;;;;;;;11.88;10.63;;;32.10;38.30;;;;;;5056582;28;20071;-74
2022/06/29 00:54:44;;;;;;;0.00;0.00;;;32.90;37.70;;;;;;5064635;28;20116;-75
2022/06/29 00:57:18;;;;;;;0.00;0.00;;;33.80;36.50;;;;;;5060978;28;20025;-75
2022/06/29 00:59:47;;;;;;;0.00;0.00;;;34.70;35.70;;;;;;5058231;28;20028;-76
2022/06/29 01:02:15;;;;;;;3.30;1.90;;;35.20;33.00;;;;;;5063944;28;20486;-75
2022/06/29 01:04:43;;;;;;;0.00;0.00;;;34.80;32.20;;;;;;5053995;28;20061;-74
2022/06/29 01:07:11;;;;;;;8.60;1.38;;;33.70;33.80;;;;;;5057287;28;20043;-74
2022/06/29 01:09:38;;;;;;;0.80;0.80;;;33.60;34.00;;;;;;5063215;28;20485;-74
2022/06/29 01:12:05;;;;;;;0.00;0.00;;;32.80;35.00;;;;;;5061212;28;20422;-75
2022/06/29 01:14:31;;;;;;;2.33;1.65;;;32.90;35.00;;;;;;5061506;28;20041;-75
2022/06/29 01:16:57;;;;;;;0.88;0.65;;;32.90;35.30;;;;;;5053873;28;20074;-74
2022/06/29 01:19:24;;;;;;;0.55;0.55;;;32.50;35.90;;;;;;5064821;28;20035;-73
2022/06/29 01:21:52;;;;;;;8.70;3.88;;;32.70;36.20;;;;;;5061573;28;20032;-73
2022/06/29 01:24:22;;;;;;;2.60;1.55;;;32.10;36.60;;;;;;5065817;28;20382;-75
2022/06/29 01:26:49;;;;;;;4.32;1.30;;;31.90;37.40;;;;;;5058573;28;20031;-74
2022/06/29 01:29:18;;;;;;;0.65;0.47;;;31.60;37.90;;;;;;5058161;28;20104;-74
2022/06/29 01:31:44;;;;;;;0.00;0.00;;;31.40;38.60;;;;;;5051969;28;20021;-74
2022/06/29 01:34:11;;;;;;;0.60;0.50;;;31.30;39.00;;;;;;5059783;28;20087;-74
2022/06/29 01:36:37;;;;;;;1.75;1.17;;;31.50;38.50;;;;;;5061921;28;20032;-75
2022/06/29 01:39:03;;;;;;;2.72;0.30;;;31.50;38.60;;;;;;5055772;28;20048;-75
2022/06/29 01:41:29;;;;;;;0.38;0.20;;;31.30;38.10;;;;;;5062444;28;20104;-75
2022/06/29 01:43:55;;;;;;;0.22;0.22;;;31.10;38.50;;;;;;5061900;28;20020;-75
2022/06/29 01:46:21;;;;;;;2.40;1.70;;;31.10;38.20;;;;;;5056184;28;20016;-75
2022/06/29 01:48:47;;;;;;;0.30;0.30;;;31.00;38.60;;;;;;5058113;28;20020;-75
2022/06/29 01:51:13;;;;;;;2.30;1.20;;;30.80;39.50;;;;;;5059179;28;20475;-74
2022/06/29 01:53:39;;;;;;;0.35;0.32;;;31.20;38.30;;;;;;5060093;28;20055;-75
2022/06/29 01:56:06;;;;;;;0.08;0.08;;;31.80;38.30;;;;;;5061010;28;20029;-75
2022/06/29 01:58:33;;;;;;;0.20;0.20;;;32.40;37.20;;;;;;5051146;28;20025;-75
2022/06/29 02:00:59;;;;;;;11.32;2.47;;;32.60;36.40;;;;;;5062946;28;20025;-76
2022/06/29 02:03:25;;;;;;;0.00;0.00;;;32.10;37.10;;;;;;5057378;28;20021;-75
2022/06/29 02:05:51;;;;;;;9.80;1.90;;;32.40;37.40;;;;;;5058791;28;20028;-75
2022/06/29 02:08:17;;;;;;;0.73;0.50;;;32.70;36.60;;;;;;5052305;28;20147;-75
2022/06/29 02:10:46;;;;;;;0.00;0.00;;;32.40;37.20;;;;;;5053241;28;20506;-76
2022/06/29 02:13:12;;;;;;;0.47;0.47;;;32.50;37.60;;;;;;5060419;28;20510;-75
2022/06/29 02:15:38;;;;;;;0.20;0.20;;;32.70;37.40;;;;;;5051549;28;20499;-76
2022/06/29 02:18:04;;;;;;;0.00;0.00;;;33.00;35.90;;;;;;5055709;28;20360;-75
2022/06/29 02:20:30;;;;;;;0.30;0.30;;;32.90;36.00;;;;;;5059779;28;20029;-75
2022/06/29 02:22:56;;;;;;;4.10;2.83;;;33.50;35.70;;;;;;5061022;28;20024;-75
2022/06/29 02:25:22;;;;;;;0.20;0.20;;;34.10;34.90;;;;;;5051160;28;20061;-75
2022/06/29 02:27:48;;;;;;;0.10;0.03;;;35.30;33.90;;;;;;5057573;28;20093;-77
2022/06/29 02:30:16;;;;;;;1.52;0.55;;;35.80;33.10;;;;;;5059251;28;20033;-75
2022/06/29 02:35:29;;;;;;;0.00;0.00;;;34.30;33.50;;;;;;5063204;28;20074;-77
2022/06/29 02:37:55;;;;;;;0.65;0.22;;;34.30;33.80;;;;;;5050961;28;20328;-77
2022/06/29 02:40:22;;;;;;;0.00;0.00;;;34.70;32.60;;;;;;5071686;28;20103;-77
2022/06/29 02:42:48;;;;;;;0.35;0.35;;;34.80;32.90;;;;;;5072426;28;20017;-77
2022/06/29 02:45:14;;;;;;;0.30;0.30;;;35.30;31.90;;;;;;5063944;28;20025;-77
2022/06/29 02:47:40;;;;;;;2.00;0.60;;;35.60;32.90;;;;;;5060083;28;20032;-76
2022/06/29 02:50:06;;;;;;;0.90;0.50;;;36.10;30.80;;;;;;5069842;28;20035;-77
2022/06/29 02:52:32;;;;;;;4.70;1.67;;;36.10;30.30;;;;;;5062446;28;20225;-76
2022/06/29 02:54:58;;;;;;;1.25;1.15;;;34.70;30.90;;;;;;5061953;28;20403;-74
2022/06/29 02:57:24;;;;;;;6.43;1.92;;;34.00;31.70;;;;;;5057773;28;20055;-74
2022/06/29 02:59:51;;;;;;;10.80;1.35;;;33.80;31.50;;;;;;5052371;28;20098;-74
2022/06/29 03:02:17;;;;;;;0.00;0.00;;;33.80;31.90;;;;;;5059226;28;20024;-74
2022/06/29 03:04:43;;;;;;;0.00;0.00;;;34.20;32.30;;;;;;5064350;28;20093;-75
2022/06/29 03:07:09;;;;;;;0.00;0.00;;;35.00;31.50;;;;;;5066109;28;20059;-74
2022/06/29 03:09:35;;;;;;;0.00;0.00;;;36.10;29.40;;;;;;5068890;28;20062;-74
2022/06/29 03:12:01;;;;;;;0.68;0.25;;;36.80;29.70;;;;;;5057580;28;20074;-75
2022/06/29 03:14:27;;;;;;;0.85;0.68;;;37.50;28.20;;;;;;5056445;28;20041;-74
2022/06/29 03:16:53;;;;;;;0.00;0.00;;;37.20;25.80;;;;;;5057333;28;20028;-75
2022/06/29 03:19:19;;;;;;;0.00;0.00;;;37.80;24.90;;;;;;5054417;28;20026;-73
2022/06/29 03:21:47;;;;;;;2.30;0.45;;;38.20;23.90;;;;;;5058399;28;20029;-72
2022/06/29 03:24:15;;;;;;;0.00;0.00;;;38.40;22.20;;;;;;5057695;28;20033;-74
2022/06/29 03:26:41;;;;;;;0.20;0.20;;;38.20;23.70;;;;;;5057797;28;20104;-77
2022/06/29 03:29:07;;;;;;;0.50;0.50;;;37.10;24.40;;;;;;5059451;28;20028;-76
2022/06/29 03:31:33;;;;;;;0.00;0.00;;;36.60;25.00;;;;;;5055853;28;20028;-77
2022/06/29 03:33:59;;;;;;;0.00;0.00;;;37.10;25.80;;;;;;5056980;28;20029;-76
2022/06/29 03:36:25;;;;;;;0.03;0.03;;;37.90;24.50;;;;;;5060076;28;20110;-76
2022/06/29 03:38:51;;;;;;;0.15;0.15;;;38.50;24.50;;;;;;5063720;28;20029;-75
2022/06/29 03:41:20;;;;;;;0.00;0.00;;;38.30;23.60;;;;;;5059645;28;20145;-75
2022/06/29 03:43:49;;;;;;;1.25;0.55;;;37.60;25.10;;;;;;5062058;28;20343;-76
2022/06/29 03:46:15;;;;;;;0.40;0.20;;;38.00;24.90;;;;;;5061247;28;20100;-77
2022/06/29 03:48:41;;;;;;;0.00;0.00;;;37.80;24.30;;;;;;5057695;28;20117;-78
2022/06/29 03:51:07;;;;;;;0.00;0.00;;;37.90;25.10;;;;;;5105129;27;20031;-77
2022/06/29 03:53:33;;;;;;;0.00;0.00;;;38.60;23.30;;;;;;5090077;28;20027;-76
2022/06/29 03:55:59;;;;;;;0.00;0.00;;;39.20;22.50;;;;;;5102878;28;20038;-78
2022/06/29 03:58:25;;;;;;;0.00;0.00;;;38.40;23.20;;;;;;5103819;27;20028;-76
2022/06/29 04:00:51;;;;;;;0.00;0.00;;;38.90;22.70;;;;;;5088664;28;20059;-77
2022/06/29 04:03:17;;;;;;;0.00;0.00;;;38.90;21.80;;;;;;5084380;28;20420;-77
2022/06/29 04:05:44;;;;;;;0.68;0.68;;;39.00;21.90;;;;;;5109200;27;20028;-77
2022/06/29 04:08:10;;;;;;;0.08;0.08;;;38.50;21.80;;;;;;5089243;28;20472;-76
2022/06/29 04:10:36;;;;;;;0.00;0.00;;;38.00;21.80;;;;;;5104247;27;20031;-75
2022/06/29 04:13:02;;;;;;;0.00;0.00;;;37.30;22.70;;;;;;5098244;27;20035;-76
2022/06/29 04:15:28;;;;;;;0.10;0.10;;;37.10;22.90;;;;;;5104073;28;20032;-76
2022/06/29 04:17:55;;;;;;;0.00;0.00;;;36.60;23.10;;;;;;5101950;28;20024;-77
2022/06/29 04:23:05;;;;;;;0.40;0.40;;;35.50;23.80;;;;;;5098437;27;20484;-78
2022/06/29 04:25:31;;;;;;;0.00;0.00;;;35.10;23.90;;;;;;5099203;27;20036;-79
2022/06/29 04:27:57;;;;;;;0.20;0.10;;;34.80;24.10;;;;;;5103681;27;20082;-79
2022/06/29 04:30:26;;;;;;;0.00;0.00;;;34.80;23.80;;;;;;5083466;28;20042;-79
2022/06/29 04:32:52;;;;;;;0.00;0.00;;;34.80;24.70;;;;;;5098985;27;20070;-78
2022/06/29 04:35:19;;;;;;;0.00;0.00;;;34.20;25.50;;;;;;5097762;27;20031;-80
2022/06/29 04:37:45;;;;;;;0.00;0.00;;;34.80;24.80;;;;;;5100865;27;20028;-78
2022/06/29 04:40:11;;;;;;;0.00;0.00;;;35.20;24.30;;;;;;5090274;27;20466;-77
2022/06/29 04:42:37;;;;;;;0.00;0.00;;;35.60;24.60;;;;;;5098955;27;20019;-78
2022/06/29 04:45:04;;;;;;;0.00;0.00;;;35.50;24.90;;;;;;5103597;27;20027;-77
2022/06/29 04:47:30;;;;;;;0.00;0.00;;;35.70;24.60;;;;;;5098345;27;20138;-78
2022/06/29 04:49:56;;;;;;;0.00;0.00;;;36.00;25.30;;;;;;5103785;27;20154;-78
2022/06/29 04:52:24;;;;;;;0.30;0.10;;;35.80;25.60;;;;;;5099510;27;20050;-79
2022/06/29 04:54:51;;;;;;;0.00;0.00;;;35.90;25.00;;;;;;5085062;28;20039;-80
2022/06/29 04:57:17;;;;;;;0.00;0.00;;;35.70;24.90;;;;;;5100831;28;20020;-81
2022/06/29 04:59:43;;;;;;;0.00;0.00;;;36.00;24.70;;;;;;5099371;27;20028;-78
2022/06/29 05:02:09;;;;;;;0.00;0.00;;;35.60;24.90;;;;;;5080361;28;20027;-80
2022/06/29 05:04:35;;;;;;;0.00;0.00;;;35.90;24.70;;;;;;5104071;27;20107;-80
2022/06/29 05:07:01;;;;;;;0.00;0.00;;;35.50;25.00;;;;;;5103243;27;20496;-79
2022/06/29 05:09:27;;;;;;;0.00;0.00;;;35.30;25.10;;;;;;5098888;27;20032;-81
2022/06/29 05:11:53;;;;;;;0.00;0.00;;;35.70;26.10;;;;;;5103177;27;20031;-81
2022/06/29 05:14:19;;;;;;;0.00;0.00;;;36.20;26.20;;;;;;5098378;28;20509;-77
2022/06/29 05:16:45;;;;;;;0.00;0.00;;;36.30;25.90;;;;;;5081481;27;20052;-77
2022/06/29 05:19:11;;;;;;;0.00;0.00;;;35.70;28.50;;;;;;5104286;27;20028;-80
2022/06/29 05:21:37;;;;;;;1.98;1.00;;;36.10;28.20;;;;;;5098080;28;20027;-77
2022/06/29 05:24:03;;;;;;;1.25;0.45;;;35.70;29.60;;;;;;5109169;28;20089;-77
2022/06/29 05:26:29;;;;;;;0.00;0.00;;;35.70;28.40;;;;;;5081309;27;20046;-76
2022/06/29 05:28:55;;;;;;;0.70;0.65;;;35.10;29.90;;;;;;5094773;28;20484;-76
2022/06/29 05:31:23;;;;;;;0.30;0.30;;;35.00;29.90;;;;;;5102930;27;20031;-76
2022/06/29 05:33:49;;;;;;;0.00;0.00;;;35.10;29.30;;;;;;5104015;27;20085;-75
2022/06/29 05:36:15;;;;;;;0.00;0.00;;;35.10;29.60;;;;;;5105452;27;20051;-75
2022/06/29 05:38:41;;;;;;;0.00;0.00;;;34.80;29.50;;;;;;5098808;28;20020;-75
2022/06/29 05:41:07;;;;;;;0.30;0.20;;;35.00;30.00;;;;;;5101999;27;20103;-76
2022/06/29 05:43:33;;;;;;;0.00;0.00;;;35.30;27.90;;;;;;5102821;27;20093;-77
2022/06/29 05:45:59;;;;;;;0.30;0.30;;;35.40;27.50;;;;;;5098200;27;20497;-76
2022/06/29 05:48:26;;;;;;;0.20;0.20;;;35.60;27.50;;;;;;5085883;28;20501;-79
2022/06/29 05:50:52;;;;;;;0.15;0.10;;;35.50;27.50;;;;;;5087989;28;20081;-77
2022/06/29 05:53:18;;;;;;;0.00;0.00;;;35.20;27.20;;;;;;5101563;27;20032;-84
2022/06/29 05:55:45;;;;;;;0.45;0.35;;;35.20;28.70;;;;;;5098918;28;20032;-82
2022/06/29 05:58:15;;;;;;;5.28;2.65;;;35.00;28.30;;;;;;5105395;28;20449;-85
2022/06/29 06:00:42;;;;;;;0.00;0.00;;;35.30;27.80;;;;;;5107365;28;20245;-84
2022/06/29 06:03:09;;;;;;;0.03;0.03;;;35.60;28.00;;;;;;5105318;27;20424;-82
2022/06/29 06:05:35;;;;;;;0.20;0.20;;;36.20;28.60;;;;;;5092082;28;20039;-83
2022/06/29 06:08:36;;;;;;;0.00;0.00;;;36.40;28.10;;;;;;5105510;28;20032;-84
2022/06/29 06:11:02;;;;;;;0.63;0.20;;;36.80;26.70;;;;;;5016152;28;20043;-82
2022/06/29 06:13:29;;;;;;;0.00;0.00;;;36.70;27.50;;;;;;5082640;28;20127;-85
2022/06/29 06:15:55;;;;;;;0.00;0.00;;;36.10;26.90;;;;;;5096703;28;20035;-86
2022/06/29 06:18:21;;;;;;;0.00;0.00;;;35.80;27.70;;;;;;5116479;28;20038;-85
2022/06/29 06:20:47;;;;;;;0.00;0.00;;;36.10;29.10;;;;;;5114013;28;20023;-84
2022/06/29 06:23:13;;;;;;;0.57;0.57;;;36.30;28.20;;;;;;5100761;28;20048;-82
2022/06/29 06:25:40;;;;;;;0.30;0.20;;;36.60;28.60;;;;;;5094442;28;20035;-84
2022/06/29 06:28:06;;;;;;;0.05;0.05;;;36.30;27.90;;;;;;5108621;28;20024;-84
2022/06/29 06:30:32;;;;;;;0.00;0.00;;;36.00;28.50;;;;;;5108846;28;20059;-82
2022/06/29 06:32:58;;;;;;;0.00;0.00;;;36.10;29.60;;;;;;5105083;28;20028;-81
2022/06/29 06:35:24;;;;;;;0.15;0.15;;;36.00;28.90;;;;;;5100170;28;20032;-82
2022/06/29 06:37:53;;;;;;;4.30;3.92;;;36.00;28.40;;;;;;5115116;27;20019;-85
2022/06/29 06:43:03;;;;;;;0.00;0.00;;;35.70;28.70;;;;;;5107935;27;20082;-87
2022/06/29 06:45:29;;;;;;;2.83;1.13;;;36.10;28.40;;;;;;5088059;28;20080;-90
2022/06/29 06:47:55;;;;;;;0.00;0.00;;;36.00;28.00;;;;;;5107367;27;20032;-90
2022/06/29 06:50:22;;;;;;;0.10;0.10;;;36.00;28.20;;;;;;5105278;28;20131;-90
2022/06/29 06:52:48;;;;;;;3.72;1.85;;;35.80;29.90;;;;;;5105276;27;20019;-90
2022/06/29 06:55:14;;;;;;;0.00;0.00;;;35.40;28.80;;;;;;5082045;28;20063;-84
2022/06/29 06:57:41;;;;;;;0.10;0.10;;;35.50;29.30;;;;;;5103864;28;20018;-81
2022/06/29 07:00:09;;;;;;;0.00;0.00;;;35.80;29.80;;;;;;5108412;27;20024;-82
2022/06/29 07:02:36;;;;;;;0.00;0.00;;;36.20;28.80;;;;;;5103259;27;20463;-83
2022/06/29 07:05:05;;;;;;;0.00;0.00;;;36.50;27.80;;;;;;5086527;28;20031;-83
2022/06/29 07:07:31;;;;;;;0.00;0.00;;;36.20;28.00;;;;;;5083560;28;20032;-79
2022/06/29 07:09:57;;;;;;;0.00;0.00;;;35.60;28.50;;;;;;5108711;27;20069;-84
2022/06/29 07:12:23;;;;;;;0.05;0.05;;;35.40;28.00;;;;;;5089074;28;20028;-86
2022/06/29 07:14:49;;;;;;;5.60;1.65;;;35.40;28.00;;;;;;5091697;28;20047;-86
2022/06/29 07:17:15;;;;;;;0.20;0.10;;;35.30;28.80;;;;;;5082956;28;20024;-87
2022/06/29 07:19:44;;;;;;;0.00;0.00;;;35.30;28.60;;;;;;5086604;28;20027;-87
2022/06/29 07:22:10;;;;;;;0.43;0.43;;;35.30;29.20;;;;;;5100942;28;20065;-85
2022/06/29 07:24:36;;;;;;;7.47;0.47;;;35.40;28.80;;;;;;5088577;28;20024;-84
2022/06/29 07:27:02;;;;;;;1.58;1.48;;;35.20;29.00;;;;;;5082727;28;20039;-82
2022/06/29 07:29:29;;;;;;;0.10;0.10;;;35.30;28.60;;;;;;5106726;28;20498;-83
2022/06/29 07:31:55;;;;;;;11.63;1.23;;;35.40;28.10;;;;;;5110840;27;20032;-83
2022/06/29 07:34:21;;;;;;;0.00;0.00;;;35.30;28.20;;;;;;5105784;27;20047;-83
2022/06/29 07:36:47;;;;;;;1.10;0.47;;;35.10;28.90;;;;;;5106209;27;20398;-81
2022/06/29 07:39:13;;;;;;;0.00;0.00;;;35.10;28.90;;;;;;5104031;27;20023;-81
2022/06/29 07:41:41;;;;;;;0.00;0.00;;;35.40;28.60;;;;;;5106681;27;20019;-82
2022/06/29 07:44:07;;;;;;;0.08;0.08;;;35.60;27.80;;;;;;5108673;27;20020;-82
2022/06/29 07:46:33;;;;;;;0.03;0.03;;;35.60;28.30;;;;;;5104366;28;20098;-81
2022/06/29 07:48:59;;;;;;;1.02;0.57;;;35.50;28.50;;;;;;5100855;27;20205;-81
2022/06/29 07:51:25;;;;;;;1.10;1.00;;;35.60;28.60;;;;;;5106094;27;20462;-80
2022/06/29 07:53:51;;;;;;;0.20;0.20;;;35.40;28.80;;;;;;5104272;27;20024;-77
2022/06/29 07:56:18;;;;;;;0.00;0.00;;;35.40;29.10;;;;;;5106517;27;20110;-76
2022/06/29 07:58:44;;;;;;;0.10;0.10;;;35.40;28.40;;;;;;5103630;28;20027;-80
2022/06/29 08:01:10;;;;;;;0.00;0.00;;;35.30;27.90;;;;;;5103291;27;20691;-81
2022/06/29 08:03:41;;;;;;;0.20;0.10;;;35.30;28.10;;;;;;5084550;28;20431;-81
2022/06/29 08:06:07;;;;;;;0.28;0.10;;;35.40;28.50;;;;;;5090130;28;20166;-81
2022/06/29 08:08:34;;;;;;;0.00;0.00;;;35.60;28.80;;;;;;5101302;28;20059;-81
2022/06/29 08:11:00;;;;;;;0.38;0.38;;;35.90;27.70;;;;;;5101187;28;20035;-81
2022/06/29 08:13:26;;;;;;;0.08;0.08;;;36.00;27.70;;;;;;5101122;28;20027;-81
2022/06/29 08:15:52;;;;;;;0.00;0.00;;;36.30;27.40;;;;;;5083900;27;20069;-78
2022/06/29 08:18:18;;;;;;;0.93;0.93;;;36.30;27.50;;;;;;5108307;27;20106;-79
2022/06/29 08:20:44;;;;;;;0.00;0.00;;;36.30;27.60;;;;;;5103484;27;20063;-78
2022/06/29 08:23:11;;;;;;;0.00;0.00;;;35.80;27.40;;;;;;5104490;28;20040;-80
2022/06/29 08:25:37;;;;;;;0.22;0.22;;;36.30;28.50;;;;;;5082360;28;20024;-78
2022/06/29 08:28:05;;;;;;;0.10;0.10;;;36.20;28.10;;;;;;5107931;28;20520;-80
2022/06/29 08:30:32;;;;;;;0.10;0.10;;;36.00;27.60;;;;;;5083836;28;20028;-81
2022/06/29 08:32:58;;;;;;;1.92;0.88;;;36.30;27.30;;;;;;5092478;27;20028;-79
2022/06/29 08:35:24;;;;;;;0.20;0.20;;;36.20;27.60;;;;;;5109632;27;20023;-81
2022/06/29 08:37:50;;;;;;;0.10;0.10;;;36.10;27.90;;;;;;5078751;28;20027;-79
2022/06/29 08:40:17;;;;;;;0.00;0.00;;;36.00;27.80;;;;;;5067993;28;20054;-76
2022/06/29 08:43:05;;;;;;;0.10;0.10;;;36.20;28.10;;;;;;5075190;28;20023;-80
2022/06/29 08:45:31;;;;;;;1.33;0.65;;;36.30;28.30;;;;;;5071434;28;20067;-82
2022/06/29 08:47:57;;;;;;;0.00;0.00;;;36.20;28.00;;;;;;5090809;27;20032;-83
2022/06/29 08:50:23;;;;;;;0.00;0.00;;;36.10;28.30;;;;;;5084333;28;20308;-80
2022/06/29 08:52:51;;;;;;;0.00;0.00;;;36.20;27.90;;;;;;5084751;27;20085;-80
2022/06/29 08:55:20;;;;;;;0.00;0.00;;;36.50;28.50;;;;;;5069748;28;20036;-76
2022/06/29 08:57:46;;;;;;;0.00;0.00;;;36.80;28.30;;;;;;5095556;28;20016;-82
2022/06/29 09:00:12;;;;;;;0.15;0.03;;;37.10;27.70;;;;;;5071006;27;20024;-80
2022/06/29 09:02:38;;;;;;;2.20;0.28;;;37.30;27.20;;;;;;5085992;28;20020;-78
2022/06/29 09:05:05;;;;;;;0.00;0.00;;;37.10;27.20;;;;;;5110383;27;20096;-81
2022/06/29 09:07:31;;;;;;;0.00;0.00;;;37.10;27.60;;;;;;5111339;27;20460;-78
2022/06/29 09:10:01;;;;;;;0.00;0.00;;;37.20;28.00;;;;;;5116770;27;20032;-78
2022/06/29 09:12:31;;;;;;;0.10;0.10;;;37.30;26.90;;;;;;5124941;27;20033;-78
2022/06/29 09:14:58;;;;;;;0.00;0.00;;;37.30;26.80;;;;;;5129508;27;20050;-76
2022/06/29 09:17:24;;;;;;;0.28;0.15;;;37.10;26.80;;;;;;5117272;27;20429;-80
2022/06/29 09:19:53;;;;;;;2.70;2.60;;;37.40;26.80;;;;;;5103060;27;20023;-77
2022/06/29 09:22:19;;;;;;;0.43;0.25;;;37.30;27.70;;;;;;5107259;27;20534;-80
2022/06/29 09:24:45;;;;;;;1.48;1.38;;;36.70;27.40;;;;;;5087573;28;20564;-80
2022/06/29 09:27:12;;;;;;;0.00;0.00;;;36.80;27.30;;;;;;5097946;28;20027;-76
2022/06/29 09:29:41;;;;;;;0.00;0.00;;;36.70;27.10;;;;;;5087831;28;20023;-79
2022/06/29 09:32:19;;;;;;;0.00;0.00;;;37.00;27.10;;;;;;5087687;28;20028;-80
2022/06/29 09:34:48;;;;;;;0.10;0.10;;;37.20;26.00;;;;;;5084311;27;20111;-79
2022/06/29 09:37:23;;;;;;;0.00;0.00;;;37.60;25.40;;;;;;5098998;27;20509;-80
2022/06/29 09:39:51;;;;;;;0.93;0.85;;;37.80;25.50;;;;;;5112822;27;20094;-78
2022/06/29 09:42:19;;;;;;;0.00;0.00;;;37.70;25.40;;;;;;5124067;27;20088;-79
2022/06/29 09:44:47;;;;;;;0.00;0.00;;;37.80;25.30;;;;;;5110101;27;20055;-78
2022/06/29 09:47:16;;;;;;;0.00;0.00;;;38.00;25.10;;;;;;5074994;28;20031;-78
2022/06/29 09:49:46;;;;;;;0.00;0.00;;;37.70;24.80;;;;;;5098579;28;20020;-78
2022/06/29 09:52:16;;;;;;;0.00;0.00;;;37.70;24.70;;;;;;5101044;28;20027;-79
2022/06/29 09:55:00;;;;;;;0.00;0.00;;;37.60;25.50;;;;;;5079706;28;20393;-81
2022/06/29 09:57:29;;;;;;;2.85;2.65;;;37.60;25.20;;;;;;5090867;28;20037;-83
2022/06/29 10:02:51;;;;;;;1.55;0.60;;;37.60;26.40;;;;;;5099318;27;20023;-79
2022/06/29 10:05:22;;;;;;;5.53;4.68;;;37.10;25.50;;;;;;5109473;27;20225;-89
2022/06/29 10:07:51;;;;;;;0.00;0.00;;;37.00;25.10;;;;;;5091965;28;20020;-80
2022/06/29 10:10:25;;;;;;;0.00;0.00;;;37.10;24.90;;;;;;5092383;28;20031;-77
2022/06/29 10:16:40;;;;;;;0.00;0.00;;;37.20;25.10;;;;;;5030011;28;20567;-79
2022/06/29 10:20:07;;;;;;;0.20;0.20;;;37.20;25.20;;;;;;5112591;28;20489;-81
2022/06/29 10:22:33;;;;;;;0.00;0.00;;;37.30;25.00;;;;;;5000091;28;20485;-82
2022/06/29 10:25:09;;;;;;;1.25;0.90;;;36.90;25.90;;;;;;5086445;28;20040;-80
2022/06/29 10:27:35;;;;;;;0.00;0.00;;;36.90;26.10;;;;;;5087277;28;20028;-80
2022/06/29 10:30:21;;;;;;;0.00;0.00;;;36.80;26.60;;;;;;5106333;28;20489;-75
2022/06/29 10:32:48;;;;;;;0.00;0.00;;;36.50;26.40;;;;;;5100416;28;20154;-74
2022/06/29 10:35:14;;;;;;;4.00;0.38;;;36.70;26.70;;;;;;5083187;28;20538;-75
2022/06/29 10:37:51;;;;;;;0.00;0.00;;;37.10;26.20;;;;;;5100848;28;20047;-75
2022/06/29 10:40:30;;;;;;;0.00;0.00;;;36.90;26.70;;;;;;5102333;28;20027;-75
2022/06/29 10:43:08;;;;;;;0.13;0.13;;;37.10;26.30;;;;;;5083468;28;20027;-76
2022/06/29 10:45:35;;;;;;;0.00;0.00;;;37.00;26.20;;;;;;5086965;28;20492;-78
2022/06/29 10:48:06;;;;;;;21.88;3.75;;;37.10;26.50;;;;;;5099442;28;20089;-80
2022/06/29 10:50:33;;;;;;;0.00;0.00;;;36.60;26.60;;;;;;5091259;28;20027;-75
2022/06/29 10:53:12;;;;;;;0.20;0.15;;;36.30;26.20;;;;;;5081197;28;20036;-75
2022/06/29 10:55:44;;;;;;;0.00;0.00;;;36.40;26.10;;;;;;5084980;28;20431;-75
2022/06/29 10:58:11;;;;;;;0.00;0.00;;;36.40;26.00;;;;;;5099011;28;20393;-75
2022/06/29 11:00:40;;;;;;;3.72;3.47;;;36.60;26.10;;;;;;5074826;28;20020;-76
2022/06/29 11:03:10;;;;;;;0.00;0.00;;;36.90;25.90;;;;;;5097946;28;20456;-74
2022/06/29 11:05:38;;;;;;;0.00;0.00;;;36.70;25.20;;;;;;5084151;28;20059;-76
2022/06/29 11:13:33;;;;;;;6.85;0.40;;;35.90;25.40;;;;;;5103474;28;20385;-75
2022/06/29 11:16:00;;;;;;;0.00;0.00;;;36.10;26.10;;;;;;5083321;28;20043;-77
2022/06/29 11:18:32;;;;;;;0.00;0.00;;;36.30;25.50;;;;;;5082974;28;20393;-74
2022/06/29 11:21:03;;;;;;;0.00;0.00;;;36.30;25.50;;;;;;5098179;28;20496;-75
2022/06/29 11:23:31;;;;;;;0.00;0.00;;;36.20;26.00;;;;;;5114065;27;20174;-75
2022/06/29 11:25:59;;;;;;;0.00;0.00;;;36.00;25.70;;;;;;5094258;28;20478;-78
2022/06/29 11:28:28;;;;;;;6.22;5.88;;;36.10;25.50;;;;;;5096895;28;20062;-78
2022/06/29 11:31:07;;;;;;;0.03;0.03;;;36.10;25.30;;;;;;5099803;28;20312;-81
2022/06/29 11:33:36;;;;;;;0.00;0.00;;;36.20;25.20;;;;;;5086290;27;20434;-78
2022/06/29 11:36:13;;;;;;;0.00;0.00;;;36.40;25.00;;;;;;5091479;28;20047;-80
2022/06/29 11:38:50;;;;;;;0.00;0.00;;;36.60;24.90;;;;;;5096153;27;20470;-80
2022/06/29 11:41:26;;;;;;;0.00;0.00;;;36.60;23.90;;;;;;5104015;28;20030;-77
2022/06/29 11:44:06;;;;;;;0.00;0.00;;;36.40;24.00;;;;;;5103711;28;20012;-77
2022/06/29 11:46:37;;;;;;;0.80;0.63;;;36.00;25.20;;;;;;5105305;28;20036;-79
2022/06/29 11:51:53;;;;;;;0.00;0.00;;;36.10;25.00;;;;;;5107272;27;20041;-84
2022/06/29 11:54:43;;;;;;;0.00;0.00;;;36.00;25.20;;;;;;5105252;27;20473;-84
2022/06/29 11:57:20;;;;;;;0.00;0.00;;;35.70;24.50;;;;;;5102087;28;20891;-81
2022/06/29 11:59:47;;;;;;;0.00;0.00;;;35.80;24.70;;;;;;5120826;27;20070;-82
2022/06/29 12:02:15;;;;;;;0.00;0.00;;;36.10;24.20;;;;;;5109863;27;20024;-83
2022/06/29 12:04:44;;;;;;;0.00;0.00;;;36.00;25.60;;;;;;5101116;27;20473;-83
2022/06/29 12:07:10;;;;;;;0.00;0.00;;;35.80;25.40;;;;;;5108314;27;20031;-82
2022/06/29 12:09:38;;;;;;;0.00;0.00;;;35.60;25.20;;;;;;5076797;28;20024;-75
2022/06/29 12:12:06;;;;;;;13.45;12.30;;;35.60;25.40;;;;;;5080463;28;20111;-76
2022/06/29 12:14:33;;;;;;;0.00;0.00;;;35.80;25.90;;;;;;5106164;28;20046;-75
2022/06/29 12:16:59;;;;;;;0.00;0.00;;;35.70;26.10;;;;;;5104626;27;20027;-76
2022/06/29 12:19:25;;;;;;;0.00;0.00;;;35.50;26.80;;;;;;5099004;28;20023;-75
2022/06/29 12:21:52;;;;;;;0.00;0.00;;;35.60;25.80;;;;;;5110924;27;20077;-76
2022/06/29 12:24:19;;;;;;;0.00;0.00;;;35.60;25.90;;;;;;5110656;27;20034;-75
2022/06/29 12:26:45;;;;;;;0.00;0.00;;;35.70;27.10;;;;;;5113645;28;20091;-77
2022/06/29 12:29:13;;;;;;;0.00;0.00;;;35.60;27.20;;;;;;5113535;28;20012;-76
2022/06/29 12:31:44;;;;;;;0.00;0.00;;;35.70;28.10;;;;;;5101432;28;20012;-73
2022/06/29 12:34:10;;;;;;;10.40;9.43;;;35.30;26.40;;;;;;5101591;28;20426;-74
2022/06/29 12:36:37;;;;;;;0.75;0.75;;;35.40;28.50;;;;;;5089759;27;20024;-76
2022/06/29 12:39:04;;;;;;;0.65;0.63;;;35.40;26.50;;;;;;5083894;28;20016;-77
2022/06/29 12:41:31;;;;;;;0.93;0.30;;;35.60;26.00;;;;;;5105041;28;20059;-76
2022/06/29 12:43:57;;;;;;;0.03;0.03;;;35.60;26.20;;;;;;5108017;28;20030;-75
2022/06/29 12:46:23;;;;;;;0.05;0.05;;;35.70;25.70;;;;;;5109393;28;20026;-75
2022/06/29 12:48:49;;;;;;;0.00;0.00;;;35.70;26.00;;;;;;5119685;28;20027;-75
2022/06/29 12:51:18;;;;;;;1.60;0.80;;;35.70;25.40;;;;;;5109062;28;20024;-75
2022/06/29 12:53:44;;;;;;;0.00;0.00;;;35.70;25.40;;;;;;5094977;28;20645;-75
2022/06/29 12:56:10;;;;;;;0.00;0.00;;;35.80;24.00;;;;;;5111533;28;20047;-75
2022/06/29 12:58:36;;;;;;;0.32;0.32;;;35.70;24.20;;;;;;5094799;28;20066;-75
2022/06/29 13:01:02;;;;;;;0.00;0.00;;;35.60;24.90;;;;;;5100685;28;20023;-75
2022/06/29 13:03:28;;;;;;;0.00;0.00;;;35.50;25.10;;;;;;5088253;28;20400;-76
2022/06/29 13:05:54;;;;;;;0.00;0.00;;;35.50;24.70;;;;;;5095849;28;20050;-77
2022/06/29 13:08:20;;;;;;;0.00;0.00;;;35.40;23.40;;;;;;5109991;27;20466;-75
2022/06/29 13:10:46;;;;;;;2.55;2.03;;;35.20;24.90;;;;;;5112900;27;20103;-75